Time;durP1;ratioP1;P1;durP2;ratioP2;P2;SDS_P1;SDS_P2;PMS_P1;PMS_P2;Temp;Humidity;BMP_temperature;BMP_pressure;BME280_temperature;BME280_humidity;BME280_pressure;Samples;Min_cycle;Max_cycle;Signal;HPM_P1;HPM_P2
2021/03/27 00:00:22;;;;;;;62.67;26.93;;;;;;;5.27;54.64;95409.25;4879644;29;20477;-68
2021/03/27 00:02:56;;;;;;;59.58;27.15;;;;;;;5.21;53.60;95402.50;4879700;29;20189;-69
2021/03/27 00:05:42;;;;;;;66.25;25.52;;;;;;;4.84;54.49;95395.63;4895011;29;20185;-68
2021/03/27 00:08:15;;;;;;;64.10;29.27;;;;;;;4.76;54.58;95385.72;4864190;29;20216;-69
2021/03/27 00:10:45;;;;;;;59.47;26.10;;;;;;;4.92;54.96;95402.88;4879094;29;20240;-71
2021/03/27 00:13:21;;;;;;;51.80;24.47;;;;;;;5.16;54.93;95407.13;4895008;29;20679;-68
2021/03/27 00:16:00;;;;;;;49.97;24.40;;;;;;;5.24;53.77;95404.59;4893500;28;20448;-68
2021/03/27 00:18:56;;;;;;;61.45;25.95;;;;;;;5.49;53.45;95397.94;4975403;28;20177;-68
2021/03/27 00:21:32;;;;;;;48.93;22.27;;;;;;;5.27;52.49;95406.63;4992487;28;20190;-70
2021/03/27 00:24:05;;;;;;;57.80;24.80;;;;;;;5.22;53.63;95400.69;4974901;28;20432;-68
2021/03/27 00:26:32;;;;;;;43.80;22.73;;;;;;;5.29;52.41;95396.53;4975898;28;20438;-68
2021/03/27 00:29:02;;;;;;;44.73;22.70;;;;;;;5.44;53.07;95392.75;4958922;28;20435;-68
2021/03/27 00:31:53;;;;;;;49.33;23.60;;;;;;;5.38;52.94;95390.50;4959046;28;20436;-68
2021/03/27 00:34:21;;;;;;;41.80;20.23;;;;;;;5.29;53.28;95391.22;4961160;28;20516;-68
2021/03/27 00:36:48;;;;;;;46.93;21.43;;;;;;;5.26;52.92;95388.38;4959098;28;20421;-68
2021/03/27 00:39:42;;;;;;;42.80;20.97;;;;;;;5.19;53.23;95393.31;4958860;28;20492;-68
2021/03/27 00:42:21;;;;;;;53.33;20.90;;;;;;;5.31;53.62;95388.28;4987554;28;20425;-68
2021/03/27 00:45:00;;;;;;;45.33;21.97;;;;;;;5.24;53.13;95383.41;4960303;28;20416;-68
2021/03/27 00:47:27;;;;;;;50.10;23.83;;;;;;;5.21;52.98;95385.84;4974846;28;20866;-68
2021/03/27 00:50:06;;;;;;;52.83;23.40;;;;;;;5.29;52.56;95377.22;4958953;28;20516;-68
2021/03/27 00:52:36;;;;;;;46.40;22.10;;;;;;;5.23;53.36;95386.34;4992055;28;20492;-70
2021/03/27 00:55:09;;;;;;;44.63;21.47;;;;;;;5.32;52.87;95382.69;4959043;28;20429;-70
2021/03/27 00:57:37;;;;;;;46.37;21.13;;;;;;;5.29;52.84;95382.50;4959312;28;20424;-69
2021/03/27 01:00:21;;;;;;;48.45;20.55;;;;;;;5.20;53.32;95381.63;4974558;28;20574;-68
2021/03/27 01:02:49;;;;;;;39.97;19.88;;;;;;;5.17;53.24;95379.59;4991924;28;20649;-69
2021/03/27 01:05:17;;;;;;;46.83;22.83;;;;;;;5.08;53.73;95378.72;4958771;28;20184;-68
2021/03/27 01:07:42;;;;;;;47.20;20.65;;;;;;;4.85;55.22;95373.38;4958694;28;20273;-69
2021/03/27 01:10:16;;;;;;;49.73;19.93;;;;;;;4.80;55.47;95380.63;4974758;28;20649;-68
2021/03/27 01:12:42;;;;;;;41.60;20.27;;;;;;;4.90;55.05;95378.56;4958185;28;20184;-68
2021/03/27 01:15:38;;;;;;;53.27;21.13;;;;;;;4.91;54.75;95372.19;4958623;28;20508;-68
2021/03/27 01:18:15;;;;;;;45.50;19.73;;;;;;;4.92;55.08;95388.84;4960953;28;20181;-68
2021/03/27 01:20:43;;;;;;;46.90;21.15;;;;;;;4.91;55.11;95388.06;4974672;28;20208;-68
2021/03/27 01:23:09;;;;;;;37.75;20.42;;;;;;;4.90;53.97;95388.38;4962292;28;20300;-68
2021/03/27 01:25:35;;;;;;;44.40;20.80;;;;;;;4.88;54.50;95391.31;4962532;28;20221;-68
2021/03/27 01:28:08;;;;;;;59.10;23.40;;;;;;;4.89;55.22;95390.25;4978280;28;20193;-68
2021/03/27 01:31:01;;;;;;;47.88;22.40;;;;;;;4.94;55.15;95392.00;4978391;28;20174;-68
2021/03/27 01:33:31;;;;;;;48.05;23.30;;;;;;;4.78;55.99;95387.00;4995608;28;20174;-68
2021/03/27 01:36:03;;;;;;;67.73;21.73;;;;;;;4.93;54.43;95391.19;4978022;28;20273;-68
2021/03/27 01:38:35;;;;;;;47.05;21.83;;;;;;;4.90;55.22;95383.88;4978357;28;20471;-68
2021/03/27 01:41:23;;;;;;;44.75;21.77;;;;;;;4.80;55.03;95388.56;4962488;28;20221;-68
2021/03/27 01:44:03;;;;;;;50.92;21.60;;;;;;;4.64;56.15;95382.81;4995449;28;20189;-68
2021/03/27 01:46:53;;;;;;;56.25;22.67;;;;;;;4.65;56.19;95387.00;4963066;28;20185;-68
2021/03/27 01:49:24;;;;;;;48.55;21.98;;;;;;;4.61;56.55;95393.97;4995181;28;20564;-68
2021/03/27 01:52:13;;;;;;;51.45;23.55;;;;;;;4.59;56.49;95390.84;4995379;28;20178;-68
2021/03/27 01:54:57;;;;;;;50.97;22.48;;;;;;;4.63;55.63;95386.53;4977602;28;20185;-68
2021/03/27 01:57:39;;;;;;;53.60;24.83;;;;;;;4.57;56.51;95388.50;4978324;28;20569;-68
2021/03/27 02:00:07;;;;;;;47.78;23.73;;;;;;;4.57;56.03;95390.34;4962930;28;20212;-68
2021/03/27 02:02:59;;;;;;;51.67;22.17;;;;;;;4.52;56.24;95383.28;4978010;28;20220;-69
2021/03/27 02:05:32;;;;;;;59.97;23.75;;;;;;;4.53;56.82;95390.16;4977809;28;20671;-68
2021/03/27 02:08:03;;;;;;;50.97;25.88;;;;;;;4.49;56.15;95387.31;4977536;28;20263;-68
2021/03/27 02:11:05;;;;;;;47.05;22.80;;;;;;;4.30;56.80;95393.75;4962324;28;20181;-68
2021/03/27 02:13:42;;;;;;;53.70;25.58;;;;;;;4.53;55.82;95398.06;4977562;28;20169;-68
2021/03/27 02:16:18;;;;;;;48.88;23.80;;;;;;;4.30;56.66;95397.19;4977430;28;20206;-69
2021/03/27 02:18:49;;;;;;;48.05;23.75;;;;;;;4.20;56.92;95402.66;4994960;28;20228;-70
2021/03/27 02:21:14;;;;;;;59.35;25.33;;;;;;;4.30;56.66;95396.41;4994645;28;20185;-68
2021/03/27 02:23:45;;;;;;;50.23;23.23;;;;;;;4.42;57.14;95405.41;4994677;28;20184;-68
2021/03/27 02:26:37;;;;;;;49.42;22.63;;;;;;;4.37;56.90;95408.16;4994535;28;20185;-69
2021/03/27 02:29:27;;;;;;;48.20;24.23;;;;;;;4.39;56.78;95406.00;4980008;28;20645;-68
2021/03/27 02:32:22;;;;;;;53.97;22.85;;;;;;;4.31;57.59;95403.25;4994671;28;20174;-70
2021/03/27 02:35:11;;;;;;;52.55;22.85;;;;;;;4.32;56.36;95408.25;4896098;29;20664;-67
2021/03/27 02:37:56;;;;;;;46.05;22.48;;;;;;;4.40;56.52;95402.28;4883628;29;20273;-68
2021/03/27 02:40:28;;;;;;;55.30;23.65;;;;;;;4.41;55.87;95406.50;4883402;29;20217;-66
2021/03/27 02:43:04;;;;;;;48.55;23.45;;;;;;;4.13;57.69;95415.47;4881472;29;20244;-67
2021/03/27 02:45:41;;;;;;;48.08;22.40;;;;;;;4.24;57.42;95406.28;4880938;29;20181;-67
2021/03/27 02:48:29;;;;;;;49.78;23.65;;;;;;;3.95;58.12;95415.22;4865210;29;20272;-67
2021/03/27 02:51:04;;;;;;;55.50;24.80;;;;;;;3.44;59.87;95409.94;4822482;29;20690;-67
2021/03/27 02:53:45;;;;;;;51.00;24.10;;;;;;;4.03;58.29;95413.00;4822072;29;20195;-67
2021/03/27 02:56:30;;;;;;;50.80;23.10;;;;;;;3.74;59.03;95413.19;4807376;29;20180;-67
2021/03/27 02:59:14;;;;;;;60.53;24.35;;;;;;;3.82;58.97;95415.97;4807272;29;20291;-67
2021/03/27 03:01:47;;;;;;;59.78;26.98;;;;;;;3.28;60.04;95412.03;4822117;29;20195;-67
2021/03/27 03:04:15;;;;;;;51.50;24.30;;;;;;;3.61;58.98;95414.72;4807128;29;20194;-68
2021/03/27 03:07:11;;;;;;;52.67;22.00;;;;;;;3.63;58.83;95416.00;4822108;29;20194;-67
2021/03/27 03:10:11;;;;;;;38.22;20.15;;;;;;;3.68;57.33;95428.34;4809670;29;20199;-68
2021/03/27 03:12:55;;;;;;;33.25;17.20;;;;;;;3.97;56.38;95421.00;4883145;29;20212;-68
2021/03/27 03:15:28;;;;;;;38.90;17.65;;;;;;;3.89;56.96;95421.66;4895895;29;20193;-68
2021/03/27 03:18:15;;;;;;;38.50;20.17;;;;;;;3.16;59.49;95427.50;4881394;29;20193;-67
2021/03/27 03:21:04;;;;;;;43.95;20.50;;;;;;;3.24;58.11;95431.34;4895815;29;20256;-67
2021/03/27 03:23:36;;;;;;;42.25;19.80;;;;;;;3.42;58.40;95420.81;4881409;29;20680;-67
2021/03/27 03:26:26;;;;;;;42.33;19.15;;;;;;;3.67;57.54;95427.56;4865309;29;20666;-67
2021/03/27 03:28:55;;;;;;;42.15;21.00;;;;;;;3.96;56.44;95429.22;4979386;28;20687;-68
2021/03/27 03:31:33;;;;;;;46.60;21.42;;;;;;;3.71;57.40;95430.41;4959913;28;20580;-67
2021/03/27 03:34:06;;;;;;;48.50;20.70;;;;;;;3.49;59.03;95420.44;4976501;28;20600;-67
2021/03/27 03:36:49;;;;;;;47.25;22.48;;;;;;;3.81;57.52;95427.59;4960009;28;20190;-67
2021/03/27 03:39:46;;;;;;;59.83;25.52;;;;;;;3.76;57.76;95438.25;4975969;28;20198;-67
2021/03/27 03:42:27;;;;;;;57.53;25.17;;;;;;;3.84;58.05;95444.75;4993360;28;20170;-67
2021/03/27 03:44:55;;;;;;;51.28;25.27;;;;;;;3.73;59.08;95441.47;4992159;28;20570;-67
2021/03/27 03:47:56;;;;;;;57.15;24.90;;;;;;;3.85;57.71;95439.16;4959989;28;20182;-68
2021/03/27 03:50:28;;;;;;;54.17;26.00;;;;;;;3.78;58.33;95432.69;4978342;28;20202;-68
2021/03/27 03:53:02;;;;;;;58.72;25.13;;;;;;;3.52;58.63;95434.91;4976198;28;20192;-67
2021/03/27 03:56:00;;;;;;;53.15;25.40;;;;;;;3.90;57.48;95440.94;4975560;28;20268;-68
2021/03/27 03:58:44;;;;;;;56.58;26.10;;;;;;;3.16;60.66;95440.69;4962313;28;20178;-68
2021/03/27 04:01:20;;;;;;;58.28;26.95;;;;;;;3.54;59.52;95438.84;4975586;28;20612;-68
2021/03/27 04:03:58;;;;;;;48.80;22.73;;;;;;;3.76;57.85;95440.91;4975470;28;20173;-68
2021/03/27 04:06:25;;;;;;;54.67;24.27;;;;;;;3.75;58.06;95436.69;4975094;28;20189;-68
2021/03/27 04:08:59;;;;;;;49.50;23.85;;;;;;;3.98;57.47;95443.72;4959384;28;20182;-70
2021/03/27 04:11:46;;;;;;;51.63;24.00;;;;;;;3.50;59.27;95437.84;4975497;28;20169;-68
2021/03/27 04:14:43;;;;;;;49.67;22.50;;;;;;;3.30;59.10;95444.19;4992784;28;20564;-70
2021/03/27 04:17:31;;;;;;;42.47;22.85;;;;;;;3.22;59.50;95447.47;4975200;28;20256;-70
2021/03/27 04:20:20;;;;;;;49.97;22.17;;;;;;;3.32;59.11;95441.28;4961402;28;20705;-69
2021/03/27 04:23:10;;;;;;;48.40;21.13;;;;;;;3.84;57.57;95450.81;4960541;28;20173;-71
2021/03/27 04:25:56;;;;;;;46.25;20.05;;;;;;;3.83;56.98;95445.81;4974872;28;20253;-72
2021/03/27 04:28:39;;;;;;;63.53;21.95;;;;;;;3.95;57.04;95456.72;4977720;28;20205;-69
2021/03/27 04:31:09;;;;;;;50.80;20.98;;;;;;;3.55;59.07;95466.03;4992447;28;20188;-69
2021/03/27 04:33:39;;;;;;;50.08;21.90;;;;;;;3.64;58.17;95464.31;4959175;28;20184;-69
2021/03/27 04:36:07;;;;;;;44.92;22.63;;;;;;;3.56;58.38;95462.31;4974908;28;20228;-68
2021/03/27 04:38:51;;;;;;;43.95;21.88;;;;;;;3.68;58.26;95474.03;4992008;28;20182;-72
2021/03/27 04:41:21;;;;;;;42.30;22.13;;;;;;;3.72;58.51;95479.53;4992175;28;20213;-68
2021/03/27 04:44:05;;;;;;;50.45;23.50;;;;;;;3.46;59.77;95465.88;4974056;28;20304;-68
2021/03/27 04:46:34;;;;;;;49.35;22.90;;;;;;;3.69;58.99;95480.88;4960419;28;20177;-69
2021/03/27 04:49:31;;;;;;;53.60;22.63;;;;;;;3.84;58.35;95474.59;4958794;28;20181;-68
2021/03/27 04:52:05;;;;;;;45.10;22.48;;;;;;;3.91;58.51;95482.91;4991945;28;20182;-71
2021/03/27 04:54:35;;;;;;;46.90;22.27;;;;;;;3.87;57.68;95484.59;4974737;28;20177;-70
2021/03/27 04:57:10;;;;;;;48.03;22.77;;;;;;;3.87;57.85;95481.94;4974158;28;20174;-70
2021/03/27 04:59:53;;;;;;;56.47;22.35;;;;;;;3.79;58.33;95487.88;4974084;28;20212;-69
2021/03/27 05:02:35;;;;;;;54.92;23.50;;;;;;;3.78;59.89;95485.53;4975523;28;20556;-69
2021/03/27 05:05:27;;;;;;;47.97;21.98;;;;;;;3.95;58.95;95491.06;4960290;28;20212;-69
2021/03/27 05:08:12;;;;;;;50.42;24.75;;;;;;;3.92;59.01;95492.41;4991796;28;20268;-68
2021/03/27 05:11:10;;;;;;;53.80;25.38;;;;;;;3.95;59.48;95494.50;4974443;28;20281;-68
2021/03/27 05:13:39;;;;;;;55.20;24.58;;;;;;;3.88;59.89;95499.38;4958426;28;20189;-68
2021/03/27 05:16:10;;;;;;;54.70;26.52;;;;;;;3.32;60.98;95499.34;4958617;28;20252;-68
2021/03/27 05:18:51;;;;;;;61.00;28.13;;;;;;;3.02;61.97;95505.75;4991634;28;20184;-68
2021/03/27 05:21:38;;;;;;;51.67;26.05;;;;;;;3.29;60.18;95495.41;4960230;28;20240;-68
2021/03/27 05:24:51;;;;;;;46.50;22.88;;;;;;;3.68;58.79;95497.00;4975435;28;20636;-68
2021/03/27 05:27:22;;;;;;;49.63;23.42;;;;;;;3.38;59.85;95498.22;4893835;29;20228;-68
2021/03/27 05:30:23;;;;;;;50.90;22.95;;;;;;;3.40;59.98;95494.22;4894044;29;20245;-69
2021/03/27 05:33:30;;;;;;;47.67;25.33;;;;;;;3.84;58.69;95501.00;4872774;29;20248;-68
2021/03/27 05:36:16;;;;;;;56.92;25.77;;;;;;;4.29;58.33;95506.66;4819956;29;20816;-68
2021/03/27 05:38:59;;;;;;;51.50;24.67;;;;;;;4.51;57.10;95504.16;4805043;29;20534;-67
2021/03/27 05:41:50;;;;;;;57.30;25.60;;;;;;;4.58;57.31;95506.41;4820187;29;20196;-67
2021/03/27 05:44:53;;;;;;;56.35;24.90;;;;;;;4.83;57.01;95507.84;4819999;29;20302;-67
2021/03/27 05:47:57;;;;;;;49.83;25.00;;;;;;;4.98;56.06;95506.75;4820033;29;20199;-69
2021/03/27 05:51:03;;;;;;;34.70;17.30;;;;;;;5.07;53.53;95498.94;4801787;29;20284;-69
2021/03/27 05:53:50;;;;;;;32.13;15.93;;;;;;;5.02;53.21;95503.25;4744419;30;20218;-73
2021/03/27 05:56:53;;;;;;;32.90;17.23;;;;;;;5.33;52.01;95510.56;4748190;30;20199;-71
2021/03/27 05:59:51;;;;;;;36.57;17.87;;;;;;;5.47;52.13;95503.41;4801432;29;20298;-71
2021/03/27 06:02:51;;;;;;;38.63;16.60;;;;;;;5.68;51.60;95508.28;4801287;29;20461;-71
2021/03/27 06:05:30;;;;;;;29.70;16.13;;;;;;;5.69;50.50;95512.50;4801702;29;20445;-70
2021/03/27 06:07:55;;;;;;;31.23;14.87;;;;;;;5.54;51.24;95514.38;4802304;29;20465;-70
2021/03/27 06:10:33;;;;;;;29.80;14.93;;;;;;;5.75;50.67;95513.94;4804760;29;21008;-69
2021/03/27 06:13:17;;;;;;;28.60;16.67;;;;;;;5.82;51.29;95519.59;4832093;29;20233;-70
2021/03/27 06:16:14;;;;;;;48.77;20.67;;;;;;;5.84;52.32;95518.25;4859582;29;20602;-71
2021/03/27 06:18:55;;;;;;;27.20;12.37;;;;;;;6.11;49.70;95521.91;4844363;29;20437;-68
2021/03/27 06:21:42;;;;;;;28.30;11.57;;;;;;;5.74;50.72;95522.97;4859237;29;20482;-69
2021/03/27 06:24:49;;;;;;;28.00;11.73;;;;;;;6.16;47.94;95521.78;4828089;29;20549;-71
2021/03/27 06:27:56;;;;;;;21.60;12.00;;;;;;;6.28;47.51;95518.59;4864620;29;20888;-68
2021/03/27 06:30:40;;;;;;;34.23;17.23;;;;;;;6.08;50.94;95530.47;4926379;28;20433;-69
2021/03/27 06:33:19;;;;;;;28.67;13.73;;;;;;;6.40;48.32;95523.34;4957261;28;20520;-69
2021/03/27 06:36:02;;;;;;;29.80;15.73;;;;;;;6.34;48.98;95520.03;4957735;28;20438;-69
2021/03/27 06:39:00;;;;;;;33.33;17.17;;;;;;;6.32;50.14;95527.53;4959601;28;20491;-68
2021/03/27 06:41:43;;;;;;;30.80;16.20;;;;;;;6.81;47.23;95534.53;4975064;28;20453;-69
2021/03/27 06:44:27;;;;;;;37.43;18.03;;;;;;;6.95;47.01;95529.13;4926360;28;21188;-70
2021/03/27 06:46:54;;;;;;;34.83;17.40;;;;;;;6.88;47.13;95526.91;4974945;28;20425;-69
2021/03/27 06:49:42;;;;;;;36.13;18.20;;;;;;;7.21;46.88;95534.53;4957540;28;20513;-69
2021/03/27 06:52:31;;;;;;;34.20;17.90;;;;;;;7.33;45.06;95536.63;4974905;28;20504;-69
2021/03/27 06:55:06;;;;;;;35.57;18.20;;;;;;;7.35;45.44;95532.56;4943125;28;20436;-70
2021/03/27 06:57:58;;;;;;;38.80;18.67;;;;;;;7.52;46.05;95539.00;4956851;28;20433;-68
2021/03/27 07:00:42;;;;;;;41.03;19.40;;;;;;;7.43;46.22;95529.16;4959890;28;20536;-69
2021/03/27 07:03:29;;;;;;;32.57;17.33;;;;;;;7.57;45.99;95538.88;4957867;28;20426;-70
2021/03/27 07:05:57;;;;;;;29.90;17.10;;;;;;;7.42;45.61;95538.22;4974399;28;20426;-72
2021/03/27 07:08:44;;;;;;;38.30;16.60;;;;;;;7.54;44.50;95534.19;4974549;28;20410;-70
2021/03/27 07:11:21;;;;;;;33.97;18.07;;;;;;;7.41;45.90;95541.19;4974280;28;20484;-70
2021/03/27 07:14:05;;;;;;;29.97;15.27;;;;;;;7.55;45.32;95533.88;4974358;28;20424;-71
2021/03/27 07:16:39;;;;;;;28.57;15.47;;;;;;;7.67;45.92;95543.91;4974308;28;20426;-72
2021/03/27 07:19:39;;;;;;;25.83;14.43;;;;;;;7.85;45.72;95534.84;4956778;28;20434;-72
2021/03/27 07:22:28;;;;;;;34.67;16.40;;;;;;;7.91;45.46;95538.13;4974261;28;21006;-71
2021/03/27 07:25:20;;;;;;;28.40;15.43;;;;;;;7.91;46.06;95536.28;4956941;28;20469;-70
2021/03/27 07:28:06;;;;;;;22.57;12.67;;;;;;;8.41;43.03;95537.69;4895728;29;20518;-71
2021/03/27 07:30:43;;;;;;;20.13;11.40;;;;;;;8.35;43.34;95533.59;4895752;29;20473;-69
2021/03/27 07:33:48;;;;;;;17.83;9.90;;;;;;;8.44;42.39;95539.75;4895661;29;20430;-69
2021/03/27 07:36:41;;;;;;;19.97;11.83;;;;;;;8.00;41.96;95544.25;4895420;29;20979;-69
2021/03/27 07:39:18;;;;;;;21.53;11.70;;;;;;;8.26;41.67;95543.50;4895058;29;20469;-69
2021/03/27 07:42:14;;;;;;;20.80;12.37;;;;;;;8.53;42.02;95548.50;4895521;29;20413;-69
2021/03/27 07:44:44;;;;;;;25.07;11.93;;;;;;;8.73;41.14;95529.19;4895234;29;20966;-69
2021/03/27 07:47:21;;;;;;;24.93;11.90;;;;;;;8.91;41.12;95547.78;4895381;29;20858;-69
2021/03/27 07:50:20;;;;;;;20.80;11.40;;;;;;;9.09;40.80;95543.19;4895296;29;20437;-68
2021/03/27 07:53:23;;;;;;;20.83;10.50;;;;;;;9.26;39.72;95549.25;4895125;29;20436;-69
2021/03/27 07:56:15;;;;;;;17.20;10.83;;;;;;;9.12;40.41;95546.00;4895082;29;20429;-69
2021/03/27 07:59:02;;;;;;;21.23;10.57;;;;;;;9.15;39.88;95532.06;4895183;29;20429;-69
2021/03/27 08:01:33;;;;;;;18.23;10.43;;;;;;;9.19;39.69;95535.63;4895050;29;20445;-69
2021/03/27 08:04:17;;;;;;;21.57;11.27;;;;;;;9.26;40.28;95537.81;4907752;28;20464;-70
2021/03/27 08:06:59;;;;;;;18.13;10.93;;;;;;;9.45;40.60;95535.53;4973519;28;20472;-71
2021/03/27 08:09:54;;;;;;;17.13;10.60;;;;;;;9.55;41.27;95534.38;4955825;28;20465;-70
2021/03/27 08:12:39;;;;;;;19.40;11.20;;;;;;;9.48;40.00;95539.41;4955942;28;20426;-70
2021/03/27 08:15:28;;;;;;;20.10;10.60;;;;;;;9.80;40.98;95540.66;4973383;28;20418;-69
2021/03/27 08:18:17;;;;;;;22.30;9.83;;;;;;;9.79;41.23;95541.78;4973126;28;20484;-69
2021/03/27 08:20:44;;;;;;;22.33;10.77;;;;;;;9.97;40.55;95529.88;4956339;28;20461;-70
2021/03/27 08:23:51;;;;;;;18.13;10.20;;;;;;;10.36;40.18;95529.75;4952684;28;20534;-70
2021/03/27 08:26:57;;;;;;;17.83;11.13;;;;;;;10.38;39.60;95532.88;4915512;29;21057;-69
2021/03/27 08:29:43;;;;;;;21.40;11.30;;;;;;;10.23;39.60;95532.38;4918692;29;20434;-70
2021/03/27 08:32:28;;;;;;;22.53;11.90;;;;;;;10.59;40.01;95533.63;4931937;29;20936;-70
2021/03/27 08:35:03;;;;;;;24.27;12.80;;;;;;;10.93;39.67;95527.16;4916223;29;20467;-70
2021/03/27 08:38:05;;;;;;;20.97;12.17;;;;;;;11.24;37.90;95533.91;4932446;29;20502;-69
2021/03/27 08:40:47;;;;;;;27.17;13.93;;;;;;;11.21;37.28;95538.00;4932261;29;20478;-69
2021/03/27 08:43:16;;;;;;;22.23;13.17;;;;;;;11.35;38.83;95535.81;4932209;29;20938;-69
2021/03/27 08:45:56;;;;;;;32.43;14.93;;;;;;;11.42;37.70;95532.56;4932097;29;20419;-69
2021/03/27 08:48:36;;;;;;;21.43;12.83;;;;;;;11.53;37.22;95533.69;4931827;29;20455;-68
2021/03/27 08:51:26;;;;;;;24.77;14.33;;;;;;;11.32;37.27;95523.09;4916876;29;20801;-70
2021/03/27 08:54:29;;;;;;;26.37;16.13;;;;;;;11.27;38.89;95522.53;4901428;29;20880;-69
2021/03/27 08:57:11;;;;;;;32.83;14.53;;;;;;;11.59;39.12;95527.00;4919270;29;21147;-69
2021/03/27 09:00:01;;;;;;;29.33;15.40;;;;;;;11.85;39.32;95524.00;4921488;29;20486;-70
2021/03/27 09:02:32;;;;;;;32.23;15.23;;;;;;;11.88;38.58;95534.00;4953485;29;20414;-69
2021/03/27 09:05:16;;;;;;;25.30;14.90;;;;;;;12.23;38.75;95524.69;4953148;29;20433;-69
2021/03/27 09:07:53;;;;;;;27.40;15.43;;;;;;;12.41;38.06;95523.28;4953453;29;21010;-69
2021/03/27 09:10:42;;;;;;;33.60;16.50;;;;;;;12.64;36.39;95521.63;4953342;29;20513;-71
2021/03/27 09:13:33;;;;;;;27.87;15.57;;;;;;;12.76;36.86;95526.16;4938589;29;20430;-69
2021/03/27 09:16:18;;;;;;;28.43;15.07;;;;;;;12.78;36.68;95523.13;4937964;29;20435;-71
2021/03/27 09:19:20;;;;;;;26.47;14.57;;;;;;;12.48;36.44;95523.47;4936630;29;20423;-70
2021/03/27 09:22:25;;;;;;;30.77;16.13;;;;;;;12.63;36.46;95524.66;4935791;29;20481;-68
2021/03/27 09:25:00;;;;;;;32.73;15.83;;;;;;;12.61;36.18;95524.97;4929026;29;20516;-69
2021/03/27 09:27:44;;;;;;;23.87;14.80;;;;;;;12.86;35.70;95514.94;4952238;29;20445;-71
2021/03/27 09:30:34;;;;;;;30.30;15.67;;;;;;;12.65;35.27;95515.16;4952819;29;20429;-68
2021/03/27 09:33:28;;;;;;;26.83;15.43;;;;;;;12.89;36.29;95519.59;4952927;29;20437;-70
2021/03/27 09:35:56;;;;;;;23.13;15.10;;;;;;;12.95;35.58;95512.84;4951989;29;20992;-69
2021/03/27 09:38:55;;;;;;;33.23;17.20;;;;;;;13.13;36.29;95515.19;4952881;29;20433;-72
2021/03/27 09:41:32;;;;;;;25.67;14.73;;;;;;;13.35;34.54;95511.16;4952775;29;20546;-72
2021/03/27 09:44:12;;;;;;;29.37;14.30;;;;;;;13.49;35.62;95514.19;4955177;28;20418;-69
2021/03/27 09:47:06;;;;;;;32.47;14.57;;;;;;;13.67;35.40;95512.69;4939192;29;20446;-72
2021/03/27 09:50:00;;;;;;;24.37;14.87;;;;;;;13.66;33.78;95515.72;4939663;29;20433;-68
2021/03/27 09:52:40;;;;;;;25.93;15.70;;;;;;;13.72;34.55;95511.66;4956778;29;20430;-68
2021/03/27 09:55:24;;;;;;;25.60;14.73;;;;;;;13.66;33.16;95505.78;4956377;29;20815;-68
2021/03/27 09:58:16;;;;;;;26.27;14.17;;;;;;;13.89;33.69;95513.16;4956564;29;20418;-68
2021/03/27 10:00:48;;;;;;;26.27;14.63;;;;;;;14.05;31.79;95505.09;4939486;29;20497;-67
2021/03/27 10:03:36;;;;;;;27.13;14.67;;;;;;;14.07;32.26;95497.44;4956186;29;20492;-67
2021/03/27 10:06:50;;;;;;;32.53;16.03;;;;;;;14.43;34.11;95493.56;4896958;29;20437;-68
2021/03/27 10:09:37;;;;;;;32.50;15.57;;;;;;;14.10;31.66;95497.53;4897295;29;20561;-67
2021/03/27 10:12:04;;;;;;;29.50;16.63;;;;;;;14.29;34.27;95494.06;4896976;29;20472;-67
2021/03/27 10:14:34;;;;;;;32.03;17.60;;;;;;;14.56;32.10;95497.69;4897028;29;20424;-67
2021/03/27 10:17:16;;;;;;;38.10;18.10;;;;;;;14.81;31.15;95487.38;4896944;29;20952;-67
2021/03/27 10:19:48;;;;;;;24.53;13.93;;;;;;;14.96;30.17;95474.97;4896917;29;21030;-68
2021/03/27 10:22:45;;;;;;;36.70;16.10;;;;;;;14.88;31.56;95479.47;4896914;29;20863;-67
2021/03/27 10:25:22;;;;;;;26.50;14.50;;;;;;;15.02;30.67;95482.38;4857473;29;20462;-67
2021/03/27 10:27:59;;;;;;;24.50;12.57;;;;;;;14.94;30.79;95485.31;4859135;29;20829;-69
2021/03/27 10:30:40;;;;;;;26.77;12.90;;;;;;;15.07;30.42;95484.78;4857531;29;20431;-70
2021/03/27 10:33:16;;;;;;;21.80;13.33;;;;;;;15.00;32.17;95478.50;4859144;29;20431;-67
2021/03/27 10:35:49;;;;;;;25.60;13.77;;;;;;;15.29;30.31;95480.53;4859305;29;20456;-68
2021/03/27 10:38:35;;;;;;;23.17;13.67;;;;;;;15.17;30.61;95479.94;4859248;29;20527;-68
2021/03/27 10:41:05;;;;;;;22.60;13.60;;;;;;;15.38;29.82;95482.97;4859433;29;20474;-69
2021/03/27 10:43:33;;;;;;;29.13;13.67;;;;;;;15.43;30.24;95471.09;4887099;29;20432;-67
2021/03/27 10:46:24;;;;;;;20.53;13.20;;;;;;;15.62;29.34;95468.34;4899467;29;20860;-67
2021/03/27 10:49:08;;;;;;;21.87;13.23;;;;;;;16.03;30.57;95473.91;4858898;29;21014;-70
2021/03/27 10:51:51;;;;;;;26.17;13.57;;;;;;;15.99;28.32;95468.47;4858899;29;20431;-69
2021/03/27 10:54:52;;;;;;;27.97;13.53;;;;;;;15.89;29.05;95466.44;4850557;29;20197;-68
2021/03/27 10:57:46;;;;;;;21.57;12.30;;;;;;;16.19;29.26;95471.03;4858995;29;20431;-69
2021/03/27 11:00:40;;;;;;;22.53;12.73;;;;;;;16.24;27.10;95468.03;4844986;29;20297;-68
2021/03/27 11:03:30;;;;;;;21.47;12.50;;;;;;;16.15;26.48;95460.22;4899388;29;20180;-67
2021/03/27 11:06:17;;;;;;;20.90;11.83;;;;;;;16.13;26.62;95462.50;4914931;29;20228;-68
2021/03/27 11:09:28;;;;;;;25.27;13.43;;;;;;;15.78;26.81;95454.75;4914656;29;20203;-68
2021/03/27 11:11:56;;;;;;;25.50;12.40;;;;;;;15.36;28.83;95458.31;4827847;29;20275;-69
2021/03/27 11:14:42;;;;;;;21.60;12.40;;;;;;;15.77;28.79;95451.28;4858850;29;20182;-68
2021/03/27 11:17:26;;;;;;;28.07;12.83;;;;;;;15.96;27.14;95449.59;4856538;29;20431;-68
2021/03/27 11:20:00;;;;;;;23.50;12.30;;;;;;;16.16;27.07;95447.50;4856723;29;20507;-70
2021/03/27 11:22:47;;;;;;;28.03;11.33;;;;;;;16.13;26.51;95452.50;4858509;29;20195;-68
2021/03/27 11:25:18;;;;;;;23.00;10.00;;;;;;;16.48;26.35;95443.28;4870866;29;20819;-71
2021/03/27 11:27:55;;;;;;;9.80;6.73;;;;;;;16.49;24.89;95438.66;4914512;29;20196;-70
2021/03/27 11:30:42;;;;;;;9.20;4.87;;;;;;;16.42;25.26;95436.66;4901735;29;20259;-70
2021/03/27 11:33:22;;;;;;;8.57;4.50;;;;;;;16.57;26.07;95438.38;4912127;29;20184;-73
2021/03/27 11:36:00;;;;;;;7.23;4.43;;;;;;;16.60;23.80;95434.91;4896734;29;20203;-70
2021/03/27 11:38:41;;;;;;;7.43;5.07;;;;;;;16.59;24.73;95432.59;4899090;29;20644;-71
2021/03/27 11:41:16;;;;;;;6.67;4.50;;;;;;;16.53;24.75;95434.84;4912923;28;20211;-72
2021/03/27 11:44:21;;;;;;;7.03;4.47;;;;;;;16.77;23.90;95435.50;4896096;29;20344;-70
2021/03/27 11:46:55;;;;;;;8.20;3.97;;;;;;;16.69;23.26;95429.25;4839173;29;20772;-68
2021/03/27 11:49:49;;;;;;;8.40;4.00;;;;;;;16.66;24.04;95424.56;4839235;29;20208;-70
2021/03/27 11:52:40;;;;;;;9.33;4.00;;;;;;;16.78;24.44;95431.66;4820952;29;20191;-67
2021/03/27 11:55:20;;;;;;;7.40;4.57;;;;;;;16.69;23.33;95420.38;4806224;29;20611;-67
2021/03/27 11:58:11;;;;;;;6.43;4.33;;;;;;;16.32;23.91;95408.44;4821324;29;20758;-68
2021/03/27 12:00:48;;;;;;;8.07;4.40;;;;;;;16.58;25.92;95409.50;4820787;29;20394;-70
2021/03/27 12:03:17;;;;;;;7.03;4.63;;;;;;;16.61;23.90;95416.81;4806856;29;20191;-68
2021/03/27 12:05:42;;;;;;;6.10;4.17;;;;;;;16.40;24.57;95406.63;4828800;29;20283;-68
2021/03/27 12:08:28;;;;;;;12.93;4.63;;;;;;;16.46;24.72;95415.91;4838905;29;20240;-68
2021/03/27 12:11:03;;;;;;;7.03;4.27;;;;;;;16.67;24.79;95410.75;4839171;29;20199;-68
2021/03/27 12:14:06;;;;;;;4.83;3.70;;;;;;;17.00;23.42;95400.25;4838745;29;20175;-68
2021/03/27 12:16:55;;;;;;;7.43;4.33;;;;;;;17.29;23.69;95396.63;4750901;30;20238;-67
2021/03/27 12:19:49;;;;;;;5.87;4.37;;;;;;;17.35;22.88;95403.22;4697885;30;20688;-70
2021/03/27 12:22:45;;;;;;;4.87;3.83;;;;;;;17.18;23.57;95398.47;4705713;30;20594;-69
2021/03/27 12:25:39;;;;;;;7.97;4.13;;;;;;;17.40;24.21;95402.88;4733596;30;20242;-69
2021/03/27 12:28:18;;;;;;;6.60;4.17;;;;;;;17.50;22.74;95393.28;4747858;29;20631;-70
2021/03/27 12:31:14;;;;;;;7.47;4.67;;;;;;;17.42;22.76;95394.38;4788275;29;20192;-68
2021/03/27 12:33:47;;;;;;;9.97;4.67;;;;;;;17.21;22.77;95383.44;4782954;29;20191;-69
2021/03/27 12:36:15;;;;;;;8.90;4.20;;;;;;;17.38;23.18;95385.50;4801403;29;20230;-69